ADDS METAR Data INFO
IDs: Format: Raw Decoded Include TAF

Data at: 0754 UTC 23 Apr 2018

KCRP 230751Z 08005KT 10SM FEW150 SCT210 BKN250 20/14 A3002 RMK AO2 SLP164 T02000139 $
KCRP 230651Z 08008KT 10SM SCT200 BKN250 21/14 A3003 RMK AO2 SLP166 T02060144 $
KCRP 230551Z 09007KT 10SM SCT200 BKN250 21/14 A3003 RMK AO2 SLP167 T02060139 10278 20194 402890167 51004 $
KCRP 230451Z 09008KT 10SM SCT200 BKN250 21/14 A3003 RMK AO2 SLP167 T02060139 $
KCRP 230351Z 07008KT 10SM FEW200 BKN250 22/15 A3002 RMK AO2 SLP164 T02170150 $
KCRP 230251Z 08006KT 10SM BKN250 22/16 A3002 RMK AO2 SLP163 T02170161 53018 $
KCRP 230151Z 08006KT 10SM SCT250 22/14 A3000 RMK AO2 SLP157 T02220144 $
KCRP 230051Z 09010KT 10SM FEW200 SCT250 24/15 A2998 RMK AO2 SLP150 T02390150 $
KCRP 222351Z 05006KT 10SM FEW200 SCT250 27/10 A2996 RMK AO2 SLP145 T02720100 10289 20261 55004 $
KCRP 222251Z 04008KT 10SM FEW160 FEW200 28/11 A2996 RMK AO2 SLP143 T02830111 $
KCRP 222151Z 01010G15KT 10SM FEW180 FEW250 28/11 A2996 RMK AO2 SLP144 T02830111 $
KCRP 222051Z 03010KT 10SM FEW140 29/11 A2998 RMK AO2 SLP150 T02890106 56020 $
KCRP 221951Z 02015G20KT 10SM FEW140 28/12 A2999 RMK AO2 SLP155 T02830117 $
KCRP 221851Z 01015KT 10SM FEW140 27/12 A3002 RMK AO2 SLP164 T02720122 $
KCRP 221751Z COR 36016G22KT 10SM FEW140 SCT200 26/12 A3004 RMK AO2 SLP169 T02560122 10261 20167 58008 $
KCRP 221651Z 01014KT 10SM FEW200 24/13 A3006 RMK AO2 SLP179 T02390128 $
KCRP 221551Z 01012KT 10SM FEW200 22/13 A3006 RMK AO2 SLP179 T02220128 $
KCRP 221451Z 03015KT 10SM FEW015 FEW200 21/13 A3006 RMK AO2 SLP177 T02060128 50015 $
KCRP 221351Z 01012KT 10SM FEW009 FEW011 SCT200 18/15 A3007 RMK AO2 SLP180 T01830150 $
KCRP 221334Z 01011KT 10SM FEW009 SCT011 SCT200 18/16 A3007 RMK AO2 T01780156 $
KCRP 221321Z COR 01013KT 10SM SCT009 BKN011 17/15 A3007 RMK AO2 T01670150 $
KCRP 221251Z 01013KT 10SM OVC009 17/16 A3005 RMK AO2 SLP175 CIG 008V010 T01720161 $
KCRP 221216Z 01015KT 10SM BKN009 OVC012 17/16 A3003 RMK AO2 T01720161 $
KCRP 221151Z 02015KT 10SM OVC012 18/17 A3001 RMK AO2 SLP162 60000 70002 T01780167 10217 20178 53021 $
KCRP 221133Z 01013KT 10SM SCT011 BKN017 BKN250 18/17 A3001 RMK AO2 T01780167 $
KCRP 221118Z 01015KT 10SM FEW006 SCT011 BKN013 BKN250 18/18 A3000 RMK AO2 T01830178 $
KCRP 221051Z 01011G21KT 5SM BR OVC006 21/21 A2998 RMK AO2 RAB12E23 SLP150 P0000 T02060206 $
KCRP 221040Z 01012KT 8SM OVC006 21/21 A2997 RMK AO2 RAB12E23 P0000 T02060206 $
KCRP 221016Z 01008KT 8SM -RA FEW006 BKN019 BKN040 21/21 A2997 RMK AO2 RAB12 P0000 T02110211 $
KCRP 221003Z 35008KT 8SM BKN012 BKN035 OVC041 21/21 A2996 RMK AO2 T02060206 $
KCRP 220951Z 33003KT 8SM SCT012 BKN032 21/21 A2995 RMK AO2 SLP142 T02110211 $
KCRP 220933Z 35005KT 8SM FEW012 BKN030 OVC035 20/20 A2995 RMK AO2 T02000200 $
KCRP 220851Z 31006KT 6SM BR BKN014 BKN025 20/20 A2995 RMK AO2 SLP141 T02000200 53008 $
KCRP 220845Z 32006KT 6SM BR BKN013 OVC022 19/19 A2995 RMK AO2 $
KCRP 220832Z COR 30006KT 4SM R13/2800VP6000FT BR BCFG FEW000 BKN020 BKN025 18/18 A2995 RMK AO2 VIS SE 2 1/2 S 1 SW 2 FG FEW000 T01830183 $
KCRP 220826Z 28004KT 1/2SM R13/1400V4000FT FG SCT000 SCT018 18/18 A2994 RMK AO2 T01830183 $
KCRP 220822Z 25003KT 1 1/2SM R13/1400V2200FT BR SCT000 19/19 A2993 RMK AO2 VIS N 1 SW 3/4 W-NW 1/2 T01890189 $
KCRP 220751Z 21004KT 8SM BCFG FEW000 19/19 A2992 RMK AO2 SLP130 FG FEW000 T01890189 $
KCRP 220651Z 18004KT 10SM FEW020 21/21 A2993 RMK AO2 SLP132 T02060206 $
KCRP 220551Z 19005KT 10SM FEW035 22/22 A2993 RMK AO2 SLP133 T02170217 10244 20217 402780200 51008 $
KCRP 220451Z 17008KT 10SM FEW012 FEW032 22/22 A2991 RMK AO2 SLP128 T02220222
KCRP 220351Z 17010KT 10SM FEW014 SCT032 BKN050 23/22 A2992 RMK AO2 SLP130 T02330222
KCRP 220337Z 17016KT 10SM SCT014 SCT032 BKN055 23/22 A2991 RMK AO2 T02330222
KCRP 220251Z 16013KT 10SM BKN013 BKN022 OVC200 24/22 A2990 RMK AO2 SLP125 T02390222 53018
KCRP 220151Z 17012KT 10SM BKN014 OVC023 24/22 A2989 RMK AO2 SLP120 T02390222
KCRP 220051Z 16016KT 10SM BKN016 BKN021 OVC032 24/22 A2986 RMK AO2 SLP109 T02390217
KCRP 220026Z 16016KT 10SM BKN014 OVC021 24/22 A2985 RMK AO2 T02390217
KCRP 212351Z 16017KT 10SM BKN015 BKN022 OVC070 24/22 A2985 RMK AO2 PK WND 15028/2332 SLP107 60000 T02440217 10272 20244 55005
KCRP 212251Z 15021KT 10SM FEW014 BKN017 OVC027 25/22 A2985 RMK AO2 PK WND 15028/2214 RAE02 SLP105 SHRA DSNT N P0000 T02500217
KCRP 212151Z 15020KT 10SM -RA FEW014 BKN017 OVC027 24/22 A2985 RMK AO2 PK WND 14027/2120 RAB31 SLP106 P0000 T02440217
KCRP 212051Z 15021KT 10SM BKN021 OVC029 25/21 A2987 RMK AO2 PK WND 15030/2023 SLP112 60000 T02500211 56021
KCRP 212006Z 16021G28KT 10SM BKN023 BKN070 OVC090 26/21 A2988 RMK AO2 PK WND 15028/2003 T02610211